createdAt,value
2022-10-21T00:02:13.235Z,97921.00
2022-10-21T00:05:01.895Z,97926.00
2022-10-21T00:07:38.449Z,97923.00
2022-10-21T00:10:28.104Z,97929.00
2022-10-21T00:13:21.626Z,97918.00
2022-10-21T00:16:03.523Z,97938.00
2022-10-21T00:18:40.595Z,97939.00
2022-10-21T00:21:30.730Z,97918.00
2022-10-21T00:24:11.219Z,97940.00
2022-10-21T00:26:45.751Z,97933.00
2022-10-21T00:29:34.435Z,97953.00
2022-10-21T00:32:20.979Z,97932.00
2022-10-21T00:35:03.001Z,97936.00
2022-10-21T00:37:54.713Z,97943.00
2022-10-21T00:40:30.894Z,97911.00
2022-10-21T00:43:05.629Z,97890.00
2022-10-21T00:45:49.054Z,97883.00
2022-10-21T00:48:34.307Z,97888.00
2022-10-21T00:51:16.065Z,97910.00
2022-10-21T00:53:57.043Z,97940.00
2022-10-21T00:56:40.376Z,97936.00
2022-10-21T00:59:22.234Z,97937.00
2022-10-21T01:02:23.000Z,97948.00
2022-10-21T01:05:01.485Z,97939.00
2022-10-21T01:07:51.817Z,97934.00
2022-10-21T01:10:26.427Z,97916.00
2022-10-21T01:13:24.729Z,97887.00
2022-10-21T01:16:13.792Z,97915.00
2022-10-21T01:18:56.860Z,97904.00
2022-10-21T01:21:38.802Z,97915.00
2022-10-21T01:24:55.142Z,97914.00
2022-10-21T01:27:48.647Z,97909.00
2022-10-21T01:30:46.502Z,97902.00
2022-10-21T01:33:53.070Z,97903.00
2022-10-21T01:36:51.116Z,97896.00
2022-10-21T01:39:34.267Z,97899.00
2022-10-21T01:42:52.802Z,97906.00
2022-10-21T01:46:17.656Z,97907.00
2022-10-21T01:49:25.465Z,97904.00
2022-10-21T01:52:01.533Z,97901.00
2022-10-21T01:55:02.543Z,97907.00
2022-10-21T01:57:46.261Z,97902.00
2022-10-21T02:00:21.412Z,97905.00
2022-10-21T02:03:18.995Z,97889.00
2022-10-21T02:05:56.589Z,97908.00
2022-10-21T02:08:33.852Z,97911.00
2022-10-21T02:11:18.150Z,97915.00
2022-10-21T02:14:01.862Z,97919.00
2022-10-21T02:16:42.186Z,97922.00
2022-10-21T02:19:51.830Z,97922.00
2022-10-21T02:22:27.247Z,97896.00
2022-10-21T02:25:08.836Z,97892.00
2022-10-21T02:31:22.937Z,97845.00
2022-10-21T02:37:21.245Z,97851.00
2022-10-21T02:40:14.788Z,97844.00
2022-10-21T02:43:02.306Z,97848.00
2022-10-21T02:45:40.104Z,97848.00
2022-10-21T02:48:29.431Z,97845.00
2022-10-21T02:51:20.599Z,97847.00
2022-10-21T02:54:21.950Z,97829.00
2022-10-21T02:56:56.291Z,97832.00
2022-10-21T02:59:51.865Z,97830.00
2022-10-21T03:02:27.305Z,97841.00
2022-10-21T03:05:14.841Z,97833.00
2022-10-21T03:07:50.422Z,97826.00
2022-10-21T03:10:40.105Z,97830.00
2022-10-21T03:13:31.440Z,97834.00
2022-10-21T03:18:56.584Z,97813.00
2022-10-21T03:21:38.777Z,97815.00
2022-10-21T03:24:32.052Z,97798.00
2022-10-21T03:27:12.418Z,97804.00
2022-10-21T03:29:58.410Z,97805.00
2022-10-21T03:32:35.161Z,97759.00
2022-10-21T03:35:21.506Z,97776.00
2022-10-21T03:40:39.313Z,97799.00
2022-10-21T03:43:34.133Z,97782.00
2022-10-21T03:46:20.561Z,97787.00
2022-10-21T03:49:21.423Z,97786.00
2022-10-21T03:55:40.846Z,97778.00
2022-10-21T03:58:18.151Z,97770.00
2022-10-21T04:00:57.246Z,97776.00
2022-10-21T04:03:31.924Z,97756.00
2022-10-21T04:06:15.436Z,97750.00
2022-10-21T04:09:05.826Z,97748.00
2022-10-21T04:11:48.151Z,97761.00
2022-10-21T04:14:38.662Z,97746.00
2022-10-21T04:17:42.039Z,97740.00
2022-10-21T04:20:32.574Z,97739.00
2022-10-21T04:23:16.560Z,97720.00
2022-10-21T04:26:20.216Z,97732.00
2022-10-21T04:29:05.120Z,97751.00
2022-10-21T04:32:00.173Z,97733.00
2022-10-21T04:34:57.639Z,97733.00
2022-10-21T04:43:22.915Z,97736.00
2022-10-21T04:46:02.626Z,97723.00
2022-10-21T04:49:28.854Z,97738.00
2022-10-21T04:52:39.191Z,97734.00
2022-10-21T04:56:09.706Z,97736.00
2022-10-21T05:19:18.489Z,97729.00
2022-10-21T05:23:01.938Z,97721.00
2022-10-21T05:41:23.220Z,97723.00
2022-10-21T05:43:58.029Z,97724.00
2022-10-21T05:50:03.746Z,97718.00
2022-10-21T05:52:38.744Z,97710.00
2022-10-21T06:03:34.604Z,97710.00
2022-10-21T06:06:37.117Z,97723.00
2022-10-21T06:13:35.049Z,97704.00
2022-10-21T06:17:04.382Z,97705.00
2022-10-21T06:20:54.067Z,97693.00
2022-10-21T06:24:44.391Z,97709.00
2022-10-21T06:28:30.916Z,97719.00
2022-10-21T06:44:47.916Z,97729.00
2022-10-21T06:55:51.430Z,97760.00
2022-10-21T06:58:31.592Z,97741.00
2022-10-21T07:01:33.778Z,97757.00
2022-10-21T07:04:16.940Z,97779.00
2022-10-21T07:07:47.338Z,97786.00
2022-10-21T07:20:59.288Z,97751.00
2022-10-21T07:27:48.325Z,97778.00
2022-10-21T07:34:35.892Z,97761.00
2022-10-21T07:41:27.216Z,97745.00
2022-10-21T07:48:07.782Z,97734.00
2022-10-21T08:05:14.194Z,97810.00
2022-10-21T08:08:23.523Z,97802.00
2022-10-21T08:44:59.231Z,97673.00
2022-10-21T08:52:04.426Z,97676.00
2022-10-21T09:03:32.131Z,97708.00
2022-10-21T09:06:29.563Z,97691.00
2022-10-21T09:09:40.583Z,97734.00
2022-10-21T09:12:42.998Z,97758.00
2022-10-21T09:23:58.570Z,97823.00
2022-10-21T09:30:47.266Z,97838.00
2022-10-21T09:34:48.885Z,97825.00
2022-10-21T09:41:47.099Z,97822.00
2022-10-21T09:49:08.172Z,97823.00
2022-10-21T10:00:08.373Z,97816.00
2022-10-21T10:02:48.248Z,97807.00
2022-10-21T10:06:21.922Z,97828.00
2022-10-21T10:09:50.176Z,97832.00
2022-10-21T10:12:27.003Z,97835.00
2022-10-21T10:15:40.081Z,97826.00
2022-10-21T10:19:19.671Z,97848.00
2022-10-21T10:22:20.386Z,97845.00
2022-10-21T10:25:33.908Z,97844.00
2022-10-21T10:28:27.371Z,97857.00
2022-10-21T10:32:25.940Z,97864.00
2022-10-21T10:35:19.901Z,97878.00
2022-10-21T10:42:06.676Z,97873.00
2022-10-21T10:45:48.866Z,97868.00
2022-10-21T10:48:48.568Z,97874.00
2022-10-21T10:51:34.328Z,97880.00
2022-10-21T10:54:39.099Z,97889.00
2022-10-21T10:57:44.301Z,97872.00
2022-10-21T11:00:27.268Z,97873.00
2022-10-21T11:03:28.458Z,97888.00
2022-10-21T11:06:44.950Z,97895.00
2022-10-21T11:09:55.034Z,97869.00
2022-10-21T11:12:47.476Z,97870.00
2022-10-21T11:19:56.292Z,97882.00
2022-10-21T11:27:09.784Z,97877.00
2022-10-21T11:34:29.111Z,97884.00
2022-10-21T11:46:07.867Z,97884.00
2022-10-21T11:53:31.755Z,97887.00
2022-10-21T12:01:32.851Z,97872.00
2022-10-21T12:08:41.228Z,97893.00
2022-10-21T12:16:02.244Z,97896.00
2022-10-21T12:18:51.319Z,97872.00
2022-10-21T12:21:50.506Z,97887.00
2022-10-21T12:25:59.732Z,97875.00
2022-10-21T12:28:58.771Z,97861.00
2022-10-21T12:32:04.690Z,97879.00
2022-10-21T12:38:50.683Z,97883.00
2022-10-21T12:42:07.219Z,97888.00
2022-10-21T12:44:57.193Z,97898.00
2022-10-21T12:47:38.142Z,97908.00
2022-10-21T12:54:06.575Z,97883.00
2022-10-21T12:57:07.075Z,97889.00
2022-10-21T12:59:56.751Z,97889.00
2022-10-21T13:03:09.119Z,97880.00
2022-10-21T13:19:11.841Z,97890.00
2022-10-21T13:22:13.657Z,97898.00
2022-10-21T13:25:16.321Z,97878.00
2022-10-21T13:28:54.916Z,97882.00
2022-10-21T13:31:47.923Z,97870.00
2022-10-21T13:35:31.969Z,97888.00
2022-10-21T13:39:19.920Z,97886.00
2022-10-21T13:43:16.701Z,97884.00
2022-10-21T13:49:59.426Z,97912.00
2022-10-21T13:52:58.705Z,97905.00
2022-10-21T13:55:46.720Z,97904.00
2022-10-21T14:02:37.297Z,97883.00
2022-10-21T14:13:20.237Z,97870.00
2022-10-21T14:16:40.491Z,97879.00
2022-10-21T14:23:30.977Z,97856.00
2022-10-21T14:30:42.260Z,97851.00
2022-10-21T14:41:56.849Z,97833.00
2022-10-21T14:44:47.607Z,97831.00
2022-10-21T14:47:47.053Z,97841.00
2022-10-21T14:55:00.291Z,97852.00
2022-10-21T15:14:55.230Z,97849.00
2022-10-21T15:22:19.184Z,97837.00
2022-10-21T15:28:02.438Z,97831.00
2022-10-21T15:31:12.058Z,97833.00
2022-10-21T15:34:00.201Z,97831.00
2022-10-21T15:59:01.229Z,97808.00
2022-10-21T16:02:24.882Z,97830.00
2022-10-21T16:05:21.236Z,97824.00
2022-10-21T16:24:20.717Z,97813.00
2022-10-21T16:43:47.899Z,97831.00
2022-10-21T16:50:54.667Z,97827.00
2022-10-21T16:54:11.951Z,97831.00
2022-10-21T16:57:11.148Z,97817.00
2022-10-21T17:01:14.235Z,97824.00
2022-10-21T17:04:00.285Z,97821.00
2022-10-21T17:11:02.404Z,97818.00
2022-10-21T17:13:39.237Z,97836.00
2022-10-21T17:16:41.184Z,97828.00
2022-10-21T17:22:15.459Z,97836.00
2022-10-21T17:25:39.974Z,97825.00
2022-10-21T17:31:29.189Z,97829.00
2022-10-21T17:35:02.368Z,97827.00
2022-10-21T17:38:24.071Z,97823.00
2022-10-21T17:41:02.907Z,97837.00
2022-10-21T17:44:04.973Z,97833.00
2022-10-21T17:47:02.959Z,97829.00
2022-10-21T17:49:40.662Z,97823.00
2022-10-21T18:00:58.000Z,97813.00
2022-10-21T18:07:50.748Z,97803.00
2022-10-21T18:10:52.836Z,97810.00
2022-10-21T18:14:10.643Z,97799.00
2022-10-21T18:20:04.144Z,97777.00
2022-10-21T18:34:07.758Z,97782.00
2022-10-21T18:40:06.437Z,97789.00
2022-10-21T18:42:44.560Z,97762.00
2022-10-21T18:49:14.913Z,97767.00
2022-10-21T18:51:52.441Z,97770.00
2022-10-21T18:54:51.258Z,97768.00
2022-10-21T18:58:14.039Z,97778.00
2022-10-21T19:01:11.195Z,97790.00
2022-10-21T19:03:57.414Z,97782.00
2022-10-21T19:06:50.134Z,97788.00
2022-10-21T19:09:48.740Z,97768.00
2022-10-21T19:16:54.695Z,97767.00
2022-10-21T19:23:36.746Z,97781.00
2022-10-21T19:27:04.101Z,97788.00
2022-10-21T19:33:00.510Z,97800.00
2022-10-21T19:35:40.856Z,97787.00
2022-10-21T19:38:49.163Z,97797.00
2022-10-21T19:41:58.048Z,97799.00
2022-10-21T19:44:36.117Z,97794.00
2022-10-21T19:47:11.889Z,97790.00
2022-10-21T19:50:39.052Z,97808.00
2022-10-21T19:53:41.827Z,97805.00
2022-10-21T19:56:37.104Z,97808.00
2022-10-21T19:59:12.695Z,97805.00
2022-10-21T20:01:52.534Z,97808.00
2022-10-21T20:04:36.368Z,97806.00
2022-10-21T20:07:17.856Z,97815.00
2022-10-21T20:14:02.516Z,97831.00
2022-10-21T20:17:03.771Z,97828.00
2022-10-21T20:24:59.985Z,97829.00
2022-10-21T20:27:44.107Z,97834.00
2022-10-21T20:30:26.386Z,97837.00
2022-10-21T20:33:02.260Z,97844.00
2022-10-21T20:35:45.604Z,97828.00
2022-10-21T20:42:40.401Z,97841.00
2022-10-21T20:45:15.449Z,97851.00
2022-10-21T20:50:52.588Z,97862.00
2022-10-21T20:54:02.185Z,97860.00
2022-10-21T20:57:39.456Z,97849.00
2022-10-21T21:10:33.970Z,97870.00
2022-10-21T21:13:58.385Z,97872.00
2022-10-21T21:16:48.741Z,97889.00
2022-10-21T21:20:05.134Z,97882.00
2022-10-21T21:22:52.758Z,97877.00
2022-10-21T21:25:29.403Z,97865.00
2022-10-21T21:28:34.011Z,97876.00
2022-10-21T21:31:13.590Z,97877.00
2022-10-21T21:38:06.174Z,97886.00
2022-10-21T21:49:07.469Z,97886.00
2022-10-21T21:59:01.534Z,97906.00
2022-10-21T22:05:52.400Z,97934.00
2022-10-21T22:12:58.278Z,97933.00
2022-10-21T22:19:55.523Z,97919.00
2022-10-21T22:27:13.430Z,97933.00
2022-10-21T22:29:57.149Z,97924.00
2022-10-21T22:32:56.176Z,97928.00
2022-10-21T22:35:46.124Z,97922.00
2022-10-21T22:46:54.773Z,97920.00
2022-10-21T22:50:25.617Z,97922.00
2022-10-21T22:53:12.633Z,97925.00
2022-10-21T23:00:06.943Z,97931.00
2022-10-21T23:03:10.513Z,97946.00
2022-10-21T23:05:45.596Z,97945.00
2022-10-21T23:08:21.673Z,97958.00
2022-10-21T23:10:56.805Z,97946.00
2022-10-21T23:17:49.432Z,97963.00
2022-10-21T23:20:41.008Z,97964.00
2022-10-21T23:23:38.760Z,97945.00
2022-10-21T23:30:34.901Z,97977.00
2022-10-21T23:33:38.174Z,97980.00
2022-10-21T23:36:14.663Z,97976.00
2022-10-21T23:39:03.524Z,97986.00
2022-10-21T23:41:38.046Z,97987.00
2022-10-21T23:44:30.000Z,97979.00
2022-10-21T23:47:09.298Z,97992.00
2022-10-21T23:49:44.752Z,97985.00
2022-10-21T23:52:20.676Z,98005.00
2022-10-21T23:55:18.083Z,97992.00
2022-10-21T23:58:04.328Z,97986.00
